createdAt,value
2023-02-11T00:02:20.757Z,13.05
2023-02-11T00:05:25.156Z,10.55
2023-02-11T00:08:26.983Z,14.88
2023-02-11T00:11:33.748Z,9.65
2023-02-11T00:14:35.407Z,12.23
2023-02-11T00:17:42.288Z,11.65
2023-02-11T00:20:46.605Z,11.73
2023-02-11T00:23:48.280Z,13.02
2023-02-11T00:26:49.979Z,11.90
2023-02-11T00:29:51.782Z,13.65
2023-02-11T00:32:53.441Z,11.57
2023-02-11T00:35:55.533Z,11.45
2023-02-11T00:38:59.971Z,8.90
2023-02-11T00:42:04.229Z,10.60
2023-02-11T00:45:06.252Z,11.38
2023-02-11T00:48:11.133Z,10.57
2023-02-11T00:51:13.017Z,10.45
2023-02-11T00:54:14.617Z,11.50
2023-02-11T00:57:16.320Z,10.98
2023-02-11T01:00:18.200Z,9.88
2023-02-11T01:03:19.829Z,9.17
2023-02-11T01:06:21.497Z,10.65
2023-02-11T01:09:25.455Z,10.23
2023-02-11T01:12:27.126Z,10.43
2023-02-11T01:15:28.962Z,11.25
2023-02-11T01:18:30.582Z,7.97
2023-02-11T01:21:32.288Z,10.07
2023-02-11T01:24:33.911Z,8.85
2023-02-11T01:27:35.720Z,10.48
2023-02-11T01:30:38.790Z,6.50
2023-02-11T01:33:43.262Z,8.45
2023-02-11T01:36:48.205Z,8.45
2023-02-11T01:39:49.915Z,8.93
2023-02-11T01:42:51.650Z,9.23
2023-02-11T01:46:02.296Z,10.57
2023-02-11T01:49:16.764Z,7.93
2023-02-11T01:52:24.214Z,8.82
2023-02-11T01:55:44.363Z,8.20
2023-02-11T01:58:46.182Z,10.13
2023-02-11T02:01:50.701Z,8.32
2023-02-11T02:05:17.972Z,8.57
2023-02-11T02:08:23.138Z,11.00
2023-02-11T02:11:25.095Z,11.35
2023-02-11T02:14:26.808Z,9.47
2023-02-11T02:17:38.067Z,8.43
2023-02-11T02:21:13.190Z,7.70
2023-02-11T02:24:33.220Z,7.72
2023-02-11T02:27:40.258Z,7.72
2023-02-11T02:30:51.358Z,7.45
2023-02-11T02:34:00.544Z,7.70
2023-02-11T02:37:35.398Z,7.18
2023-02-11T02:40:57.152Z,7.28
2023-02-11T02:43:58.901Z,7.85
2023-02-11T02:47:00.668Z,7.45
2023-02-11T02:50:02.830Z,4.82
2023-02-11T02:53:48.354Z,6.45
2023-02-11T02:57:04.812Z,6.65
2023-02-11T03:00:14.433Z,6.40
2023-02-11T03:03:20.531Z,7.32
2023-02-11T03:06:34.556Z,9.25
2023-02-11T03:09:54.975Z,10.48
2023-02-11T03:12:56.775Z,8.20
2023-02-11T03:15:58.570Z,7.88
2023-02-11T03:19:05.901Z,6.93
2023-02-11T03:22:11.425Z,8.57
2023-02-11T03:25:13.099Z,8.05
2023-02-11T03:28:32.575Z,7.93
2023-02-11T03:31:56.322Z,7.18
2023-02-11T03:35:11.486Z,6.15
2023-02-11T03:38:34.990Z,6.22
2023-02-11T03:41:36.717Z,5.15
2023-02-11T03:44:41.443Z,5.07
2023-02-11T03:47:46.309Z,6.10
2023-02-11T03:50:48.313Z,6.47
2023-02-11T03:53:50.053Z,7.63
2023-02-11T03:56:53.443Z,6.20
2023-02-11T04:00:04.452Z,6.18
2023-02-11T04:03:06.814Z,5.53
2023-02-11T04:06:08.518Z,4.90
2023-02-11T04:09:10.598Z,6.22
2023-02-11T04:12:12.319Z,5.38
2023-02-11T04:15:13.994Z,12.18
2023-02-11T04:18:15.647Z,31.15
2023-02-11T04:21:17.302Z,9.68
2023-02-11T04:24:18.944Z,6.53
2023-02-11T04:27:20.685Z,5.93
2023-02-11T04:30:22.390Z,5.25
2023-02-11T04:33:24.129Z,4.38
2023-02-11T04:36:25.863Z,5.03
2023-02-11T04:39:27.527Z,4.15
2023-02-11T04:42:29.223Z,3.58
2023-02-11T04:45:30.945Z,4.88
2023-02-11T04:48:32.610Z,6.07
2023-02-11T04:51:34.213Z,5.82
2023-02-11T04:54:35.871Z,6.85
2023-02-11T04:57:37.538Z,5.95
2023-02-11T05:00:39.205Z,6.13
2023-02-11T05:03:41.100Z,5.75
2023-02-11T05:06:42.855Z,5.30
2023-02-11T05:09:44.524Z,4.63
2023-02-11T05:12:48.521Z,6.05
2023-02-11T05:15:50.537Z,4.13
2023-02-11T05:18:53.756Z,5.13
2023-02-11T05:22:02.589Z,4.10
2023-02-11T05:25:05.462Z,4.40
2023-02-11T05:28:07.353Z,3.37
2023-02-11T05:31:09.192Z,4.28
2023-02-11T05:34:10.976Z,4.07
2023-02-11T05:37:12.756Z,4.53
2023-02-11T05:40:14.504Z,4.63
2023-02-11T05:43:16.232Z,6.38
2023-02-11T05:46:18.049Z,5.57
2023-02-11T05:49:19.778Z,3.87
2023-02-11T05:52:23.726Z,5.50
2023-02-11T05:55:25.365Z,5.80
2023-02-11T05:58:27.098Z,5.95
2023-02-11T06:01:29.372Z,7.60
2023-02-11T06:04:31.088Z,5.85
2023-02-11T06:07:32.754Z,7.95
2023-02-11T06:10:34.452Z,7.80
2023-02-11T06:13:36.406Z,5.80
2023-02-11T06:16:38.193Z,6.53
2023-02-11T06:19:39.812Z,5.65
2023-02-11T06:22:41.551Z,6.53
2023-02-11T06:25:43.206Z,7.35
2023-02-11T06:28:45.068Z,4.18
2023-02-11T06:31:49.508Z,4.50
2023-02-11T06:34:51.329Z,4.53
2023-02-11T06:37:54.080Z,4.85
2023-02-11T06:40:57.935Z,5.32
2023-02-11T06:43:59.680Z,7.47
2023-02-11T06:47:01.354Z,7.55
2023-02-11T06:50:05.603Z,6.32
2023-02-11T06:53:07.298Z,7.45
2023-02-11T06:56:10.850Z,10.60
2023-02-11T06:59:16.725Z,7.25
2023-02-11T07:02:20.766Z,7.38
2023-02-11T07:05:22.729Z,6.47
2023-02-11T07:08:24.327Z,6.25
2023-02-11T07:11:33.498Z,6.95
2023-02-11T07:14:35.155Z,8.32
2023-02-11T07:17:36.827Z,10.65
2023-02-11T07:20:39.046Z,10.20
2023-02-11T07:23:41.427Z,8.60
2023-02-11T07:26:43.162Z,9.23
2023-02-11T07:29:47.008Z,7.70
2023-02-11T07:32:49.047Z,6.72
2023-02-11T07:35:50.939Z,5.85
2023-02-11T07:38:52.895Z,5.40
2023-02-11T07:41:54.678Z,4.22
2023-02-11T07:44:58.188Z,4.57
2023-02-11T07:47:59.857Z,4.10
2023-02-11T07:51:28.475Z,3.85
2023-02-11T07:54:34.693Z,5.05
2023-02-11T07:57:39.348Z,6.72
2023-02-11T08:00:41.279Z,7.45
2023-02-11T08:03:43.258Z,5.73
2023-02-11T08:06:44.920Z,7.57
2023-02-11T08:09:46.620Z,7.13
2023-02-11T08:12:48.365Z,7.03
2023-02-11T08:15:59.654Z,7.03
2023-02-11T08:19:03.297Z,17.15
2023-02-11T08:22:07.305Z,10.20
2023-02-11T08:25:08.973Z,9.90
2023-02-11T08:28:10.605Z,11.73
2023-02-11T08:31:16.161Z,22.02
2023-02-11T08:34:22.090Z,16.50
2023-02-11T08:37:23.846Z,11.70
2023-02-11T08:40:25.595Z,9.55
2023-02-11T08:43:27.254Z,10.67
2023-02-11T08:46:29.043Z,8.82
2023-02-11T08:49:32.327Z,10.50
2023-02-11T08:52:34.051Z,10.75
2023-02-11T08:55:36.003Z,9.73
2023-02-11T08:58:38.053Z,7.10
2023-02-11T09:01:39.797Z,9.75
2023-02-11T09:04:43.944Z,8.57
2023-02-11T09:07:45.761Z,7.97
2023-02-11T09:10:50.210Z,8.57
2023-02-11T09:13:54.438Z,8.30
2023-02-11T09:17:09.909Z,6.97
2023-02-11T09:20:17.783Z,5.43
2023-02-11T09:23:25.026Z,6.22
2023-02-11T09:26:33.721Z,6.53
2023-02-11T09:29:45.634Z,5.53
2023-02-11T09:32:49.784Z,5.60
2023-02-11T09:36:01.185Z,5.88
2023-02-11T09:39:08.226Z,6.82
2023-02-11T09:42:16.036Z,6.50
2023-02-11T09:46:01.539Z,5.63
2023-02-11T09:50:06.230Z,5.32
2023-02-11T10:13:57.877Z,6.50
2023-02-11T12:19:35.476Z,4.03
